sensor_id;sensor_type;location;lat;lon;timestamp;P1;durP1;ratioP1;P2;durP2;ratioP2
25511;SDS011;13414;44.534;18.700;2023-04-24T00:02:11;36.28;;;18.55;;
25511;SDS011;13414;44.534;18.700;2023-04-24T00:04:39;29.92;;;16.95;;
25511;SDS011;13414;44.534;18.700;2023-04-24T00:07:09;30.42;;;16.45;;
25511;SDS011;13414;44.534;18.700;2023-04-24T00:09:38;29.38;;;17.60;;
25511;SDS011;13414;44.534;18.700;2023-04-24T00:12:07;29.42;;;17.40;;
25511;SDS011;13414;44.534;18.700;2023-04-24T00:14:34;37.42;;;19.73;;
25511;SDS011;13414;44.534;18.700;2023-04-24T00:17:02;38.08;;;20.52;;
25511;SDS011;13414;44.534;18.700;2023-04-24T00:19:29;34.67;;;21.73;;
25511;SDS011;13414;44.534;18.700;2023-04-24T00:21:57;30.65;;;20.73;;
25511;SDS011;13414;44.534;18.700;2023-04-24T00:24:25;33.80;;;21.23;;
25511;SDS011;13414;44.534;18.700;2023-04-24T00:26:52;39.65;;;21.63;;
25511;SDS011;13414;44.534;18.700;2023-04-24T00:29:21;31.85;;;17.77;;
25511;SDS011;13414;44.534;18.700;2023-04-24T00:31:48;27.73;;;18.80;;
25511;SDS011;13414;44.534;18.700;2023-04-24T00:34:16;30.63;;;17.83;;
25511;SDS011;13414;44.534;18.700;2023-04-24T00:36:43;27.50;;;18.45;;
25511;SDS011;13414;44.534;18.700;2023-04-24T00:39:11;34.83;;;18.23;;
25511;SDS011;13414;44.534;18.700;2023-04-24T00:41:38;27.20;;;18.58;;
25511;SDS011;13414;44.534;18.700;2023-04-24T00:44:06;27.27;;;17.63;;
25511;SDS011;13414;44.534;18.700;2023-04-24T00:46:35;24.15;;;16.50;;
25511;SDS011;13414;44.534;18.700;2023-04-24T00:49:03;22.15;;;14.95;;
25511;SDS011;13414;44.534;18.700;2023-04-24T00:51:32;24.60;;;15.75;;
25511;SDS011;13414;44.534;18.700;2023-04-24T00:54:00;21.63;;;14.80;;
25511;SDS011;13414;44.534;18.700;2023-04-24T00:56:27;24.00;;;14.25;;
25511;SDS011;13414;44.534;18.700;2023-04-24T00:58:55;21.33;;;14.05;;
25511;SDS011;13414;44.534;18.700;2023-04-24T01:01:23;19.65;;;13.88;;
25511;SDS011;13414;44.534;18.700;2023-04-24T01:03:52;25.23;;;15.05;;
25511;SDS011;13414;44.534;18.700;2023-04-24T01:06:20;26.10;;;16.50;;
25511;SDS011;13414;44.534;18.700;2023-04-24T01:08:48;26.55;;;16.33;;
25511;SDS011;13414;44.534;18.700;2023-04-24T01:11:16;25.10;;;17.00;;
25511;SDS011;13414;44.534;18.700;2023-04-24T01:13:45;25.08;;;17.17;;
25511;SDS011;13414;44.534;18.700;2023-04-24T01:16:13;33.35;;;21.00;;
25511;SDS011;13414;44.534;18.700;2023-04-24T01:18:42;25.48;;;17.30;;
25511;SDS011;13414;44.534;18.700;2023-04-24T01:21:13;25.50;;;17.85;;
25511;SDS011;13414;44.534;18.700;2023-04-24T01:23:43;27.00;;;17.65;;
25511;SDS011;13414;44.534;18.700;2023-04-24T01:26:11;26.02;;;16.77;;
25511;SDS011;13414;44.534;18.700;2023-04-24T01:28:40;25.80;;;15.32;;
25511;SDS011;13414;44.534;18.700;2023-04-24T01:31:08;23.77;;;14.68;;
25511;SDS011;13414;44.534;18.700;2023-04-24T01:33:35;22.52;;;15.77;;
25511;SDS011;13414;44.534;18.700;2023-04-24T01:36:03;21.73;;;14.40;;
25511;SDS011;13414;44.534;18.700;2023-04-24T01:38:31;22.98;;;14.50;;
25511;SDS011;13414;44.534;18.700;2023-04-24T01:41:00;20.88;;;13.88;;
25511;SDS011;13414;44.534;18.700;2023-04-24T01:43:28;22.52;;;13.45;;
25511;SDS011;13414;44.534;18.700;2023-04-24T01:45:57;20.15;;;13.48;;
25511;SDS011;13414;44.534;18.700;2023-04-24T01:48:24;17.92;;;13.40;;
25511;SDS011;13414;44.534;18.700;2023-04-24T01:50:52;19.80;;;14.55;;
25511;SDS011;13414;44.534;18.700;2023-04-24T01:53:19;18.70;;;14.15;;
25511;SDS011;13414;44.534;18.700;2023-04-24T01:55:47;22.23;;;14.93;;
25511;SDS011;13414;44.534;18.700;2023-04-24T01:58:16;22.40;;;15.07;;
25511;SDS011;13414;44.534;18.700;2023-04-24T02:00:43;23.63;;;16.13;;
25511;SDS011;13414;44.534;18.700;2023-04-24T02:03:10;26.23;;;16.20;;
25511;SDS011;13414;44.534;18.700;2023-04-24T02:05:38;23.95;;;17.02;;
25511;SDS011;13414;44.534;18.700;2023-04-24T02:08:05;25.05;;;18.70;;
25511;SDS011;13414;44.534;18.700;2023-04-24T02:10:36;31.48;;;22.65;;
25511;SDS011;13414;44.534;18.700;2023-04-24T02:13:04;25.90;;;18.35;;
25511;SDS011;13414;44.534;18.700;2023-04-24T02:15:33;26.67;;;16.38;;
25511;SDS011;13414;44.534;18.700;2023-04-24T02:18:02;28.58;;;17.15;;
25511;SDS011;13414;44.534;18.700;2023-04-24T02:20:31;30.13;;;16.77;;
25511;SDS011;13414;44.534;18.700;2023-04-24T02:22:59;25.58;;;15.90;;
25511;SDS011;13414;44.534;18.700;2023-04-24T02:25:26;21.98;;;13.20;;
25511;SDS011;13414;44.534;18.700;2023-04-24T02:27:54;18.67;;;13.00;;
25511;SDS011;13414;44.534;18.700;2023-04-24T02:30:22;20.65;;;13.15;;
25511;SDS011;13414;44.534;18.700;2023-04-24T02:32:51;21.25;;;13.43;;
25511;SDS011;13414;44.534;18.700;2023-04-24T02:35:18;22.17;;;14.00;;
25511;SDS011;13414;44.534;18.700;2023-04-24T02:37:45;18.80;;;12.98;;
25511;SDS011;13414;44.534;18.700;2023-04-24T02:40:13;22.20;;;13.55;;
25511;SDS011;13414;44.534;18.700;2023-04-24T02:42:40;16.67;;;13.00;;
25511;SDS011;13414;44.534;18.700;2023-04-24T02:45:08;17.95;;;13.30;;
25511;SDS011;13414;44.534;18.700;2023-04-24T02:47:36;18.48;;;13.35;;
25511;SDS011;13414;44.534;18.700;2023-04-24T02:50:06;22.05;;;14.27;;
25511;SDS011;13414;44.534;18.700;2023-04-24T02:52:34;20.42;;;14.25;;
25511;SDS011;13414;44.534;18.700;2023-04-24T02:55:01;22.02;;;13.70;;
25511;SDS011;13414;44.534;18.700;2023-04-24T02:57:29;18.48;;;13.15;;
25511;SDS011;13414;44.534;18.700;2023-04-24T02:59:57;18.73;;;12.90;;
25511;SDS011;13414;44.534;18.700;2023-04-24T03:02:25;18.65;;;13.40;;
25511;SDS011;13414;44.534;18.700;2023-04-24T03:04:52;17.63;;;13.38;;
25511;SDS011;13414;44.534;18.700;2023-04-24T03:07:22;17.13;;;12.10;;
25511;SDS011;13414;44.534;18.700;2023-04-24T03:09:50;16.67;;;12.07;;
25511;SDS011;13414;44.534;18.700;2023-04-24T03:12:18;15.18;;;11.63;;
25511;SDS011;13414;44.534;18.700;2023-04-24T03:14:45;18.33;;;12.30;;
25511;SDS011;13414;44.534;18.700;2023-04-24T03:17:13;17.50;;;12.25;;
25511;SDS011;13414;44.534;18.700;2023-04-24T03:19:40;19.35;;;13.07;;
25511;SDS011;13414;44.534;18.700;2023-04-24T03:22:09;19.10;;;12.43;;
25511;SDS011;13414;44.534;18.700;2023-04-24T03:24:39;21.70;;;13.35;;
25511;SDS011;13414;44.534;18.700;2023-04-24T03:27:07;22.20;;;12.85;;
25511;SDS011;13414;44.534;18.700;2023-04-24T03:30:05;21.17;;;13.93;;
25511;SDS011;13414;44.534;18.700;2023-04-24T03:32:47;18.23;;;12.57;;
25511;SDS011;13414;44.534;18.700;2023-04-24T03:35:20;19.88;;;13.68;;
25511;SDS011;13414;44.534;18.700;2023-04-24T03:37:48;20.77;;;13.15;;
25511;SDS011;13414;44.534;18.700;2023-04-24T03:40:36;20.63;;;13.20;;
25511;SDS011;13414;44.534;18.700;2023-04-24T03:43:13;23.73;;;15.35;;
25511;SDS011;13414;44.534;18.700;2023-04-24T03:45:41;27.33;;;16.73;;
25511;SDS011;13414;44.534;18.700;2023-04-24T03:48:10;23.77;;;16.58;;
25511;SDS011;13414;44.534;18.700;2023-04-24T03:50:38;22.75;;;15.68;;
25511;SDS011;13414;44.534;18.700;2023-04-24T03:53:08;25.38;;;16.48;;
25511;SDS011;13414;44.534;18.700;2023-04-24T03:55:40;23.23;;;15.50;;
25511;SDS011;13414;44.534;18.700;2023-04-24T03:58:09;18.25;;;14.18;;
25511;SDS011;13414;44.534;18.700;2023-04-24T04:00:37;26.20;;;17.25;;
25511;SDS011;13414;44.534;18.700;2023-04-24T04:03:25;26.33;;;16.88;;
25511;SDS011;13414;44.534;18.700;2023-04-24T04:05:53;20.88;;;15.70;;
25511;SDS011;13414;44.534;18.700;2023-04-24T04:08:20;19.63;;;13.95;;
25511;SDS011;13414;44.534;18.700;2023-04-24T04:10:50;20.98;;;15.82;;
25511;SDS011;13414;44.534;18.700;2023-04-24T04:13:18;21.85;;;13.48;;
25511;SDS011;13414;44.534;18.700;2023-04-24T04:15:46;18.17;;;13.38;;
25511;SDS011;13414;44.534;18.700;2023-04-24T04:18:13;17.15;;;12.15;;
25511;SDS011;13414;44.534;18.700;2023-04-24T04:20:41;18.38;;;12.98;;
25511;SDS011;13414;44.534;18.700;2023-04-24T04:23:11;21.60;;;14.55;;
25511;SDS011;13414;44.534;18.700;2023-04-24T04:25:50;23.85;;;13.60;;
25511;SDS011;13414;44.534;18.700;2023-04-24T04:28:22;25.00;;;16.67;;
25511;SDS011;13414;44.534;18.700;2023-04-24T04:30:50;31.23;;;18.88;;
25511;SDS011;13414;44.534;18.700;2023-04-24T04:33:20;26.75;;;18.73;;
25511;SDS011;13414;44.534;18.700;2023-04-24T04:35:47;24.20;;;14.50;;
25511;SDS011;13414;44.534;18.700;2023-04-24T04:38:15;27.48;;;15.70;;
25511;SDS011;13414;44.534;18.700;2023-04-24T04:40:47;23.98;;;15.07;;
25511;SDS011;13414;44.534;18.700;2023-04-24T04:43:18;23.13;;;14.05;;
25511;SDS011;13414;44.534;18.700;2023-04-24T04:45:50;19.00;;;12.27;;
25511;SDS011;13414;44.534;18.700;2023-04-24T04:48:38;18.13;;;11.82;;
25511;SDS011;13414;44.534;18.700;2023-04-24T04:51:07;22.35;;;14.55;;
25511;SDS011;13414;44.534;18.700;2023-04-24T04:53:35;21.50;;;13.90;;
25511;SDS011;13414;44.534;18.700;2023-04-24T04:56:02;24.25;;;14.95;;
25511;SDS011;13414;44.534;18.700;2023-04-24T04:58:39;26.08;;;16.00;;
25511;SDS011;13414;44.534;18.700;2023-04-24T05:01:10;32.80;;;16.20;;
25511;SDS011;13414;44.534;18.700;2023-04-24T05:03:41;29.13;;;17.65;;
25511;SDS011;13414;44.534;18.700;2023-04-24T05:06:12;41.33;;;20.98;;
25511;SDS011;13414;44.534;18.700;2023-04-24T05:08:40;35.30;;;19.45;;
25511;SDS011;13414;44.534;18.700;2023-04-24T05:11:14;40.80;;;27.83;;
25511;SDS011;13414;44.534;18.700;2023-04-24T05:13:43;50.97;;;35.50;;
25511;SDS011;13414;44.534;18.700;2023-04-24T05:16:16;44.58;;;29.35;;
25511;SDS011;13414;44.534;18.700;2023-04-24T05:18:45;38.08;;;23.50;;
25511;SDS011;13414;44.534;18.700;2023-04-24T05:21:15;34.92;;;22.48;;
25511;SDS011;13414;44.534;18.700;2023-04-24T05:23:47;33.97;;;21.20;;
25511;SDS011;13414;44.534;18.700;2023-04-24T05:26:23;36.00;;;21.85;;
25511;SDS011;13414;44.534;18.700;2023-04-24T05:28:51;38.85;;;21.40;;
25511;SDS011;13414;44.534;18.700;2023-04-24T05:31:19;35.38;;;20.55;;
25511;SDS011;13414;44.534;18.700;2023-04-24T05:33:47;29.58;;;19.33;;
25511;SDS011;13414;44.534;18.700;2023-04-24T05:36:14;33.60;;;19.85;;
25511;SDS011;13414;44.534;18.700;2023-04-24T05:38:42;32.17;;;19.17;;
25511;SDS011;13414;44.534;18.700;2023-04-24T05:41:10;38.65;;;21.27;;
25511;SDS011;13414;44.534;18.700;2023-04-24T05:43:37;26.70;;;17.35;;
25511;SDS011;13414;44.534;18.700;2023-04-24T05:46:06;32.70;;;21.52;;
25511;SDS011;13414;44.534;18.700;2023-04-24T05:48:33;29.80;;;20.15;;
25511;SDS011;13414;44.534;18.700;2023-04-24T05:51:02;28.58;;;18.40;;
25511;SDS011;13414;44.534;18.700;2023-04-24T05:53:30;27.02;;;17.92;;
25511;SDS011;13414;44.534;18.700;2023-04-24T05:55:58;25.75;;;16.15;;
25511;SDS011;13414;44.534;18.700;2023-04-24T05:58:26;26.63;;;16.77;;
25511;SDS011;13414;44.534;18.700;2023-04-24T06:00:53;28.27;;;17.10;;
25511;SDS011;13414;44.534;18.700;2023-04-24T06:03:22;28.67;;;19.45;;
25511;SDS011;13414;44.534;18.700;2023-04-24T06:05:50;39.60;;;23.25;;
25511;SDS011;13414;44.534;18.700;2023-04-24T06:08:19;38.00;;;21.50;;
25511;SDS011;13414;44.534;18.700;2023-04-24T06:10:48;34.50;;;21.45;;
25511;SDS011;13414;44.534;18.700;2023-04-24T06:13:17;32.78;;;22.20;;
25511;SDS011;13414;44.534;18.700;2023-04-24T06:16:05;41.83;;;27.70;;
25511;SDS011;13414;44.534;18.700;2023-04-24T06:18:37;36.22;;;23.60;;
25511;SDS011;13414;44.534;18.700;2023-04-24T06:21:05;40.15;;;26.58;;
25511;SDS011;13414;44.534;18.700;2023-04-24T06:23:32;47.25;;;26.63;;
25511;SDS011;13414;44.534;18.700;2023-04-24T06:26:00;43.22;;;25.27;;
25511;SDS011;13414;44.534;18.700;2023-04-24T06:28:27;44.05;;;26.65;;
25511;SDS011;13414;44.534;18.700;2023-04-24T06:30:55;41.78;;;26.77;;
25511;SDS011;13414;44.534;18.700;2023-04-24T06:33:22;43.85;;;26.38;;
25511;SDS011;13414;44.534;18.700;2023-04-24T06:35:52;48.33;;;29.98;;
25511;SDS011;13414;44.534;18.700;2023-04-24T06:38:20;54.85;;;34.15;;
25511;SDS011;13414;44.534;18.700;2023-04-24T06:40:47;60.90;;;34.53;;
25511;SDS011;13414;44.534;18.700;2023-04-24T06:43:15;50.35;;;30.58;;
25511;SDS011;13414;44.534;18.700;2023-04-24T06:45:43;50.08;;;35.08;;
25511;SDS011;13414;44.534;18.700;2023-04-24T06:48:10;38.60;;;27.55;;
25511;SDS011;13414;44.534;18.700;2023-04-24T06:50:38;40.35;;;26.08;;
25511;SDS011;13414;44.534;18.700;2023-04-24T06:53:06;49.00;;;30.73;;
25511;SDS011;13414;44.534;18.700;2023-04-24T06:55:36;57.97;;;38.47;;
25511;SDS011;13414;44.534;18.700;2023-04-24T06:58:03;43.45;;;30.75;;
25511;SDS011;13414;44.534;18.700;2023-04-24T07:00:31;38.40;;;27.38;;
25511;SDS011;13414;44.534;18.700;2023-04-24T07:02:59;40.42;;;28.15;;
25511;SDS011;13414;44.534;18.700;2023-04-24T07:05:26;39.03;;;26.25;;
25511;SDS011;13414;44.534;18.700;2023-04-24T07:07:56;36.58;;;25.48;;
25511;SDS011;13414;44.534;18.700;2023-04-24T07:10:25;35.35;;;27.20;;
25511;SDS011;13414;44.534;18.700;2023-04-24T07:12:54;34.30;;;25.75;;
25511;SDS011;13414;44.534;18.700;2023-04-24T07:15:21;41.25;;;27.45;;
25511;SDS011;13414;44.534;18.700;2023-04-24T07:17:49;43.90;;;29.42;;
25511;SDS011;13414;44.534;18.700;2023-04-24T07:20:17;39.25;;;28.17;;
25511;SDS011;13414;44.534;18.700;2023-04-24T07:22:44;40.25;;;29.92;;
25511;SDS011;13414;44.534;18.700;2023-04-24T07:25:13;28.13;;;20.73;;
25511;SDS011;13414;44.534;18.700;2023-04-24T07:27:42;44.05;;;33.50;;
25511;SDS011;13414;44.534;18.700;2023-04-24T07:30:10;31.38;;;24.90;;
25511;SDS011;13414;44.534;18.700;2023-04-24T07:32:38;31.48;;;22.70;;
25511;SDS011;13414;44.534;18.700;2023-04-24T07:35:05;35.30;;;23.08;;
25511;SDS011;13414;44.534;18.700;2023-04-24T07:37:35;35.05;;;23.45;;
25511;SDS011;13414;44.534;18.700;2023-04-24T07:40:04;34.58;;;26.52;;
25511;SDS011;13414;44.534;18.700;2023-04-24T07:42:32;41.38;;;28.58;;
25511;SDS011;13414;44.534;18.700;2023-04-24T07:45:03;45.55;;;30.60;;
25511;SDS011;13414;44.534;18.700;2023-04-24T07:47:31;33.58;;;24.35;;
25511;SDS011;13414;44.534;18.700;2023-04-24T07:49:59;29.48;;;21.13;;
25511;SDS011;13414;44.534;18.700;2023-04-24T07:52:26;32.50;;;21.65;;
25511;SDS011;13414;44.534;18.700;2023-04-24T07:54:54;30.33;;;23.63;;
25511;SDS011;13414;44.534;18.700;2023-04-24T07:57:23;34.15;;;22.35;;
25511;SDS011;13414;44.534;18.700;2023-04-24T07:59:51;34.20;;;22.30;;
25511;SDS011;13414;44.534;18.700;2023-04-24T08:02:20;32.08;;;21.52;;
25511;SDS011;13414;44.534;18.700;2023-04-24T08:04:51;24.73;;;18.75;;
25511;SDS011;13414;44.534;18.700;2023-04-24T08:07:20;27.20;;;20.70;;
25511;SDS011;13414;44.534;18.700;2023-04-24T08:09:48;23.60;;;16.75;;
25511;SDS011;13414;44.534;18.700;2023-04-24T08:12:15;23.85;;;18.27;;
25511;SDS011;13414;44.534;18.700;2023-04-24T08:14:43;23.02;;;17.70;;
25511;SDS011;13414;44.534;18.700;2023-04-24T08:17:11;28.67;;;21.13;;
25511;SDS011;13414;44.534;18.700;2023-04-24T08:19:42;28.15;;;19.60;;
25511;SDS011;13414;44.534;18.700;2023-04-24T08:22:13;20.45;;;15.07;;
25511;SDS011;13414;44.534;18.700;2023-04-24T08:24:41;19.85;;;15.45;;
25511;SDS011;13414;44.534;18.700;2023-04-24T08:27:09;18.85;;;15.20;;
25511;SDS011;13414;44.534;18.700;2023-04-24T08:29:36;22.08;;;15.65;;
25511;SDS011;13414;44.534;18.700;2023-04-24T08:32:04;22.35;;;16.85;;
25511;SDS011;13414;44.534;18.700;2023-04-24T08:34:32;20.67;;;15.02;;
25511;SDS011;13414;44.534;18.700;2023-04-24T08:37:01;18.55;;;14.70;;
25511;SDS011;13414;44.534;18.700;2023-04-24T08:39:28;19.77;;;13.60;;
25511;SDS011;13414;44.534;18.700;2023-04-24T08:41:56;14.98;;;11.55;;
25511;SDS011;13414;44.534;18.700;2023-04-24T08:44:30;16.20;;;11.75;;
25511;SDS011;13414;44.534;18.700;2023-04-24T08:46:59;13.18;;;9.75;;
25511;SDS011;13414;44.534;18.700;2023-04-24T08:49:28;11.77;;;8.30;;
25511;SDS011;13414;44.534;18.700;2023-04-24T08:51:57;11.75;;;8.52;;
25511;SDS011;13414;44.534;18.700;2023-04-24T08:54:27;8.18;;;6.05;;
25511;SDS011;13414;44.534;18.700;2023-04-24T08:56:57;8.73;;;6.47;;
25511;SDS011;13414;44.534;18.700;2023-04-24T08:59:28;8.73;;;5.38;;
25511;SDS011;13414;44.534;18.700;2023-04-24T09:01:56;10.20;;;5.65;;
25511;SDS011;13414;44.534;18.700;2023-04-24T09:04:24;10.13;;;5.32;;
25511;SDS011;13414;44.534;18.700;2023-04-24T09:06:52;8.50;;;5.38;;
25511;SDS011;13414;44.534;18.700;2023-04-24T09:09:22;11.48;;;5.00;;
25511;SDS011;13414;44.534;18.700;2023-04-24T09:11:52;8.43;;;5.03;;
25511;SDS011;13414;44.534;18.700;2023-04-24T09:14:21;8.15;;;4.80;;
25511;SDS011;13414;44.534;18.700;2023-04-24T09:16:49;8.95;;;5.63;;
25511;SDS011;13414;44.534;18.700;2023-04-24T09:19:17;12.27;;;5.78;;
25511;SDS011;13414;44.534;18.700;2023-04-24T09:21:45;15.18;;;6.25;;
25511;SDS011;13414;44.534;18.700;2023-04-24T09:24:17;10.30;;;5.07;;
25511;SDS011;13414;44.534;18.700;2023-04-24T09:26:47;9.00;;;5.35;;
25511;SDS011;13414;44.534;18.700;2023-04-24T09:29:17;12.52;;;5.20;;
25511;SDS011;13414;44.534;18.700;2023-04-24T09:31:45;9.10;;;4.88;;
25511;SDS011;13414;44.534;18.700;2023-04-24T09:34:13;6.38;;;3.95;;
25511;SDS011;13414;44.534;18.700;2023-04-24T09:36:41;8.45;;;4.18;;
25511;SDS011;13414;44.534;18.700;2023-04-24T09:39:10;8.57;;;4.50;;
25511;SDS011;13414;44.534;18.700;2023-04-24T09:41:43;8.77;;;5.20;;
25511;SDS011;13414;44.534;18.700;2023-04-24T09:44:12;6.75;;;4.85;;
25511;SDS011;13414;44.534;18.700;2023-04-24T09:46:42;7.53;;;4.95;;
25511;SDS011;13414;44.534;18.700;2023-04-24T09:49:12;11.10;;;6.40;;
25511;SDS011;13414;44.534;18.700;2023-04-24T09:51:41;10.55;;;5.40;;
25511;SDS011;13414;44.534;18.700;2023-04-24T09:54:13;16.92;;;5.72;;
25511;SDS011;13414;44.534;18.700;2023-04-24T09:56:43;7.97;;;5.00;;
25511;SDS011;13414;44.534;18.700;2023-04-24T09:59:11;8.75;;;5.18;;
25511;SDS011;13414;44.534;18.700;2023-04-24T10:01:39;10.57;;;5.38;;
25511;SDS011;13414;44.534;18.700;2023-04-24T10:04:16;7.72;;;4.97;;
25511;SDS011;13414;44.534;18.700;2023-04-24T10:06:46;7.70;;;5.03;;
25511;SDS011;13414;44.534;18.700;2023-04-24T10:09:15;6.93;;;4.65;;
25511;SDS011;13414;44.534;18.700;2023-04-24T10:11:45;9.40;;;5.85;;
25511;SDS011;13414;44.534;18.700;2023-04-24T10:14:13;9.25;;;4.90;;
25511;SDS011;13414;44.534;18.700;2023-04-24T10:16:43;8.75;;;4.80;;
25511;SDS011;13414;44.534;18.700;2023-04-24T10:19:12;8.23;;;5.38;;
25511;SDS011;13414;44.534;18.700;2023-04-24T10:21:40;8.73;;;5.40;;
25511;SDS011;13414;44.534;18.700;2023-04-24T10:24:11;8.80;;;5.57;;
25511;SDS011;13414;44.534;18.700;2023-04-24T10:26:40;8.50;;;4.63;;
25511;SDS011;13414;44.534;18.700;2023-04-24T10:29:08;7.53;;;4.82;;
25511;SDS011;13414;44.534;18.700;2023-04-24T10:31:38;6.90;;;4.32;;
25511;SDS011;13414;44.534;18.700;2023-04-24T10:34:07;8.80;;;4.60;;
25511;SDS011;13414;44.534;18.700;2023-04-24T10:36:38;7.68;;;4.88;;
25511;SDS011;13414;44.534;18.700;2023-04-24T10:39:08;8.88;;;5.68;;
25511;SDS011;13414;44.534;18.700;2023-04-24T10:41:38;6.32;;;4.85;;
25511;SDS011;13414;44.534;18.700;2023-04-24T10:44:05;9.43;;;4.80;;
25511;SDS011;13414;44.534;18.700;2023-04-24T10:46:33;12.68;;;7.25;;
25511;SDS011;13414;44.534;18.700;2023-04-24T10:49:03;10.57;;;6.45;;
25511;SDS011;13414;44.534;18.700;2023-04-24T10:51:46;7.47;;;4.93;;
25511;SDS011;13414;44.534;18.700;2023-04-24T10:54:21;12.70;;;6.18;;
25511;SDS011;13414;44.534;18.700;2023-04-24T10:56:50;6.80;;;4.75;;
25511;SDS011;13414;44.534;18.700;2023-04-24T10:59:23;15.35;;;7.55;;
25511;SDS011;13414;44.534;18.700;2023-04-24T11:01:54;6.18;;;3.95;;
25511;SDS011;13414;44.534;18.700;2023-04-24T11:04:28;8.65;;;4.30;;
25511;SDS011;13414;44.534;18.700;2023-04-24T11:06:58;8.67;;;5.90;;
25511;SDS011;13414;44.534;18.700;2023-04-24T11:09:26;10.38;;;6.20;;
25511;SDS011;13414;44.534;18.700;2023-04-24T11:12:02;9.20;;;6.05;;
25511;SDS011;13414;44.534;18.700;2023-04-24T11:17:31;10.40;;;6.30;;
25511;SDS011;13414;44.534;18.700;2023-04-24T11:20:00;7.55;;;5.60;;
25511;SDS011;13414;44.534;18.700;2023-04-24T11:22:30;5.35;;;4.00;;
25511;SDS011;13414;44.534;18.700;2023-04-24T11:25:00;8.45;;;4.47;;
25511;SDS011;13414;44.534;18.700;2023-04-24T11:27:31;7.05;;;4.65;;
25511;SDS011;13414;44.534;18.700;2023-04-24T11:30:05;6.38;;;4.72;;
25511;SDS011;13414;44.534;18.700;2023-04-24T11:32:34;6.65;;;4.53;;
25511;SDS011;13414;44.534;18.700;2023-04-24T11:35:04;8.93;;;5.60;;
25511;SDS011;13414;44.534;18.700;2023-04-24T11:37:35;21.13;;;5.40;;
25511;SDS011;13414;44.534;18.700;2023-04-24T11:40:04;6.85;;;5.18;;
25511;SDS011;13414;44.534;18.700;2023-04-24T11:42:33;8.77;;;4.82;;
25511;SDS011;13414;44.534;18.700;2023-04-24T11:45:01;7.25;;;5.10;;
25511;SDS011;13414;44.534;18.700;2023-04-24T11:47:33;7.85;;;5.05;;
25511;SDS011;13414;44.534;18.700;2023-04-24T11:50:01;7.80;;;4.70;;
25511;SDS011;13414;44.534;18.700;2023-04-24T11:52:30;10.27;;;5.38;;
25511;SDS011;13414;44.534;18.700;2023-04-24T11:54:59;10.25;;;6.10;;
25511;SDS011;13414;44.534;18.700;2023-04-24T11:57:27;8.43;;;5.60;;
25511;SDS011;13414;44.534;18.700;2023-04-24T11:59:58;9.02;;;4.38;;
25511;SDS011;13414;44.534;18.700;2023-04-24T12:02:26;7.82;;;4.28;;
25511;SDS011;13414;44.534;18.700;2023-04-24T12:04:54;8.07;;;4.13;;
25511;SDS011;13414;44.534;18.700;2023-04-24T12:07:22;7.85;;;3.85;;
25511;SDS011;13414;44.534;18.700;2023-04-24T12:09:56;5.60;;;3.50;;
25511;SDS011;13414;44.534;18.700;2023-04-24T12:12:26;8.18;;;4.32;;
25511;SDS011;13414;44.534;18.700;2023-04-24T12:14:54;7.93;;;4.60;;
25511;SDS011;13414;44.534;18.700;2023-04-24T12:17:27;8.10;;;4.97;;
25511;SDS011;13414;44.534;18.700;2023-04-24T12:19:58;10.65;;;5.53;;
25511;SDS011;13414;44.534;18.700;2023-04-24T12:22:28;5.65;;;3.80;;
25511;SDS011;13414;44.534;18.700;2023-04-24T12:25:10;11.88;;;4.40;;
25511;SDS011;13414;44.534;18.700;2023-04-24T12:27:38;4.75;;;3.50;;
25511;SDS011;13414;44.534;18.700;2023-04-24T12:30:09;5.90;;;3.70;;
25511;SDS011;13414;44.534;18.700;2023-04-24T12:32:40;7.65;;;4.18;;
25511;SDS011;13414;44.534;18.700;2023-04-24T12:35:09;11.48;;;5.28;;
25511;SDS011;13414;44.534;18.700;2023-04-24T12:37:36;7.85;;;5.00;;
25511;SDS011;13414;44.534;18.700;2023-04-24T12:40:05;9.55;;;5.63;;
25511;SDS011;13414;44.534;18.700;2023-04-24T12:42:41;5.18;;;3.55;;
25511;SDS011;13414;44.534;18.700;2023-04-24T12:45:10;7.95;;;4.30;;
25511;SDS011;13414;44.534;18.700;2023-04-24T12:47:38;8.82;;;4.13;;
25511;SDS011;13414;44.534;18.700;2023-04-24T12:50:08;6.20;;;3.95;;
25511;SDS011;13414;44.534;18.700;2023-04-24T12:52:37;5.40;;;3.30;;
25511;SDS011;13414;44.534;18.700;2023-04-24T12:55:05;9.38;;;4.70;;
25511;SDS011;13414;44.534;18.700;2023-04-24T12:57:36;6.90;;;4.32;;
25511;SDS011;13414;44.534;18.700;2023-04-24T13:00:05;8.73;;;4.90;;
25511;SDS011;13414;44.534;18.700;2023-04-24T13:02:34;12.45;;;4.60;;
25511;SDS011;13414;44.534;18.700;2023-04-24T13:05:02;7.47;;;3.55;;
25511;SDS011;13414;44.534;18.700;2023-04-24T13:07:29;8.30;;;4.00;;
25511;SDS011;13414;44.534;18.700;2023-04-24T13:09:57;8.75;;;4.13;;
25511;SDS011;13414;44.534;18.700;2023-04-24T13:12:24;5.28;;;3.38;;
25511;SDS011;13414;44.534;18.700;2023-04-24T13:14:53;6.40;;;3.67;;
25511;SDS011;13414;44.534;18.700;2023-04-24T13:17:21;8.20;;;3.70;;
25511;SDS011;13414;44.534;18.700;2023-04-24T13:19:49;6.40;;;3.80;;
25511;SDS011;13414;44.534;18.700;2023-04-24T13:22:18;5.53;;;3.72;;
25511;SDS011;13414;44.534;18.700;2023-04-24T13:24:46;6.28;;;3.65;;
25511;SDS011;13414;44.534;18.700;2023-04-24T13:27:14;6.15;;;3.63;;
25511;SDS011;13414;44.534;18.700;2023-04-24T13:29:42;5.22;;;3.50;;
25511;SDS011;13414;44.534;18.700;2023-04-24T13:32:11;5.22;;;4.05;;
25511;SDS011;13414;44.534;18.700;2023-04-24T13:34:38;5.32;;;3.80;;
25511;SDS011;13414;44.534;18.700;2023-04-24T13:37:06;4.45;;;3.08;;
25511;SDS011;13414;44.534;18.700;2023-04-24T13:39:34;5.72;;;4.00;;
25511;SDS011;13414;44.534;18.700;2023-04-24T13:42:02;6.28;;;4.57;;
25511;SDS011;13414;44.534;18.700;2023-04-24T13:44:30;4.55;;;3.33;;
25511;SDS011;13414;44.534;18.700;2023-04-24T13:46:57;5.43;;;3.58;;
25511;SDS011;13414;44.534;18.700;2023-04-24T13:49:27;7.30;;;5.43;;
25511;SDS011;13414;44.534;18.700;2023-04-24T13:51:55;7.75;;;4.20;;
25511;SDS011;13414;44.534;18.700;2023-04-24T13:54:23;11.18;;;7.20;;
25511;SDS011;13414;44.534;18.700;2023-04-24T13:56:51;5.80;;;3.78;;
25511;SDS011;13414;44.534;18.700;2023-04-24T13:59:19;9.90;;;5.93;;
25511;SDS011;13414;44.534;18.700;2023-04-24T14:01:47;7.20;;;4.35;;
25511;SDS011;13414;44.534;18.700;2023-04-24T14:04:15;7.32;;;4.20;;
25511;SDS011;13414;44.534;18.700;2023-04-24T14:06:44;7.57;;;4.50;;
25511;SDS011;13414;44.534;18.700;2023-04-24T14:09:12;6.53;;;4.30;;
25511;SDS011;13414;44.534;18.700;2023-04-24T14:11:40;5.28;;;4.00;;
25511;SDS011;13414;44.534;18.700;2023-04-24T14:14:07;5.53;;;4.13;;
25511;SDS011;13414;44.534;18.700;2023-04-24T14:16:34;5.38;;;3.50;;
25511;SDS011;13414;44.534;18.700;2023-04-24T14:19:02;8.02;;;4.63;;
25511;SDS011;13414;44.534;18.700;2023-04-24T14:21:31;7.53;;;4.10;;
25511;SDS011;13414;44.534;18.700;2023-04-24T14:24:01;5.47;;;4.03;;
25511;SDS011;13414;44.534;18.700;2023-04-24T14:26:28;8.07;;;5.53;;
25511;SDS011;13414;44.534;18.700;2023-04-24T14:28:56;6.32;;;4.38;;
25511;SDS011;13414;44.534;18.700;2023-04-24T14:31:24;8.32;;;4.70;;
25511;SDS011;13414;44.534;18.700;2023-04-24T14:33:51;7.75;;;4.03;;